Pagrindinis puslapis
METAR-TAF:

METAR-TAF

Oro uostai :

Brindizis, Italija

platuma: 40-39N, ilguma: 017-57E, Aukštis: 15 m

Dabartinis oras

Ataskaita buvo paskelbta 17 minutes, ne 03:20 UTC
Vėjas 7 kt iš Vakarų/Pietvakarių
Temperatūra 5°C
Drėgmė 87%
Slėgis 1024 hPa
Matomumas: 6000 m

METAR: LIBR 180320Z 24007KT 6000 NSC 05/03 Q1024

Laikas: 04:37 (03:37 UTC)

Prognozė

Ataskaita buvo paskelbta 4 valandos ir 37 minutes, ne 23:00 UTC
Prognozė galioja nuo 18 metu 00 UTC su 18 metu 24 UTC
Vėjas 12 kt iš Šiaurės/Šiaurės Vakarų
Matomumas 10 km arba daugiau
Išsisklaidę debesys ne aukštis 3000 ft
Laikinai
nuo 18 metu 15 UTC su 18 metu 21 UTC
lietus

TAF: LIBR 172300Z 1800/1824 34012KT 9999 SCT030 TEMPO 1815/1821 RA

Orai ataskaitas ir orų prognozės (METAR, TAF).

turimą stotys yra geltonos ir raudonos taškus žemėlapyje.

Perkelti pele per norėdami pamatyti stoties vardą.

Tada spustelėkite, norėdami matyti oro stebėjimo ir prognozės.

Norėdami pakeisti žemėlapį: spustelėkite ant žalios mygtukų su juodo kryžiaus žemyn,; žalią mygtuką su brūkšneliu, jei norite nutolinti; arba žalių rodyklių gretimoms žemėlapius.


METAR-TAF: